sensor_id;sensor_type;location;lat;lon;timestamp;pressure;altitude;pressure_sealevel;temperature;humidity
49040;BME280;36811;49.732;13.402;2023-02-20T00:00:26;98572.44;;;7.35;90.25
49040;BME280;36811;49.732;13.402;2023-02-20T00:02:53;98573.47;;;7.34;90.63
49040;BME280;36811;49.732;13.402;2023-02-20T00:05:20;98577.16;;;7.33;90.82
49040;BME280;36811;49.732;13.402;2023-02-20T00:07:46;98569.53;;;7.43;90.88
49040;BME280;36811;49.732;13.402;2023-02-20T00:10:11;98585.59;;;7.48;90.07
49040;BME280;36811;49.732;13.402;2023-02-20T00:12:38;98562.94;;;7.52;90.58
49040;BME280;36811;49.732;13.402;2023-02-20T00:15:04;98571.94;;;7.51;90.68
49040;BME280;36811;49.732;13.402;2023-02-20T00:17:30;98566.25;;;7.47;90.34
49040;BME280;36811;49.732;13.402;2023-02-20T00:19:56;98563.53;;;7.54;90.22
49040;BME280;36811;49.732;13.402;2023-02-20T00:22:22;98558.84;;;7.56;89.72
49040;BME280;36811;49.732;13.402;2023-02-20T00:24:49;98555.88;;;7.46;89.84
49040;BME280;36811;49.732;13.402;2023-02-20T00:27:14;98546.81;;;7.35;90.58
49040;BME280;36811;49.732;13.402;2023-02-20T00:29:40;98540.75;;;7.28;90.74
49040;BME280;36811;49.732;13.402;2023-02-20T00:32:05;98542.44;;;7.23;91.36
49040;BME280;36811;49.732;13.402;2023-02-20T00:34:31;98541.22;;;7.19;92.02
49040;BME280;36811;49.732;13.402;2023-02-20T00:36:57;98535.34;;;7.17;92.02
49040;BME280;36811;49.732;13.402;2023-02-20T00:39:22;98536.97;;;7.18;92.17
49040;BME280;36811;49.732;13.402;2023-02-20T00:41:48;98536.38;;;7.16;92.16
49040;BME280;36811;49.732;13.402;2023-02-20T00:44:14;98535.13;;;7.18;92.17
49040;BME280;36811;49.732;13.402;2023-02-20T00:46:40;98531.88;;;7.16;92.44
49040;BME280;36811;49.732;13.402;2023-02-20T00:49:06;98519.28;;;7.12;92.26
49040;BME280;36811;49.732;13.402;2023-02-20T00:51:31;98518.47;;;7.11;92.54
49040;BME280;36811;49.732;13.402;2023-02-20T00:53:59;98521.34;;;7.10;92.71
49040;BME280;36811;49.732;13.402;2023-02-20T00:56:24;98517.06;;;7.09;92.60
49040;BME280;36811;49.732;13.402;2023-02-20T00:58:50;98522.16;;;7.10;92.60
49040;BME280;36811;49.732;13.402;2023-02-20T01:01:17;98527.47;;;7.10;92.66
49040;BME280;36811;49.732;13.402;2023-02-20T01:03:43;98539.03;;;7.16;92.33
49040;BME280;36811;49.732;13.402;2023-02-20T01:06:09;98534.84;;;7.26;92.06
49040;BME280;36811;49.732;13.402;2023-02-20T01:08:34;98541.78;;;7.27;91.36
49040;BME280;36811;49.732;13.402;2023-02-20T01:11:00;98541.94;;;7.32;91.46
49040;BME280;36811;49.732;13.402;2023-02-20T01:13:25;98540.84;;;7.40;90.16
49040;BME280;36811;49.732;13.402;2023-02-20T01:15:51;98552.84;;;7.42;89.97
49040;BME280;36811;49.732;13.402;2023-02-20T01:18:17;98537.56;;;7.44;89.70
49040;BME280;36811;49.732;13.402;2023-02-20T01:20:42;98542.25;;;7.42;89.36
49040;BME280;36811;49.732;13.402;2023-02-20T01:23:08;98537.78;;;7.43;89.05
49040;BME280;36811;49.732;13.402;2023-02-20T01:25:34;98543.88;;;7.43;89.46
49040;BME280;36811;49.732;13.402;2023-02-20T01:27:59;98542.66;;;7.46;89.24
49040;BME280;36811;49.732;13.402;2023-02-20T01:30:25;98533.50;;;7.42;88.90
49040;BME280;36811;49.732;13.402;2023-02-20T01:32:50;98529.69;;;7.38;88.98
49040;BME280;36811;49.732;13.402;2023-02-20T01:35:16;98523.56;;;7.37;89.15
49040;BME280;36811;49.732;13.402;2023-02-20T01:37:42;98531.94;;;7.34;88.97
49040;BME280;36811;49.732;13.402;2023-02-20T01:40:14;98518.53;;;7.29;89.56
49040;BME280;36811;49.732;13.402;2023-02-20T01:42:42;98519.44;;;7.23;89.72
49040;BME280;36811;49.732;13.402;2023-02-20T01:45:38;98519.44;;;7.23;90.45
49040;BME280;36811;49.732;13.402;2023-02-20T01:48:04;98517.22;;;7.20;90.64
49040;BME280;36811;49.732;13.402;2023-02-20T01:50:37;98519.63;;;7.22;90.65
49040;BME280;36811;49.732;13.402;2023-02-20T01:53:09;98507.22;;;7.22;90.82
49040;BME280;36811;49.732;13.402;2023-02-20T01:55:40;98498.84;;;7.25;90.65
49040;BME280;36811;49.732;13.402;2023-02-20T01:58:13;98494.72;;;7.29;90.44
49040;BME280;36811;49.732;13.402;2023-02-20T02:00:40;98496.94;;;7.32;90.50
49040;BME280;36811;49.732;13.402;2023-02-20T02:03:08;98486.13;;;7.34;90.65
49040;BME280;36811;49.732;13.402;2023-02-20T02:05:41;98474.75;;;7.33;90.88
49040;BME280;36811;49.732;13.402;2023-02-20T02:08:10;98478.00;;;7.35;91.05
49040;BME280;36811;49.732;13.402;2023-02-20T02:10:46;98477.19;;;7.35;90.84
49040;BME280;36811;49.732;13.402;2023-02-20T02:13:14;98474.38;;;7.30;91.12
49040;BME280;36811;49.732;13.402;2023-02-20T02:15:40;98486.94;;;7.34;91.60
49040;BME280;36811;49.732;13.402;2023-02-20T02:18:48;98489.25;;;7.31;91.22
49040;BME280;36811;49.732;13.402;2023-02-20T02:21:43;98482.91;;;7.32;91.69
49040;BME280;36811;49.732;13.402;2023-02-20T02:24:21;98484.53;;;7.33;91.34
49040;BME280;36811;49.732;13.402;2023-02-20T02:32:39;98478.03;;;7.29;91.54
49040;BME280;36811;49.732;13.402;2023-02-20T02:43:46;98474.56;;;7.10;90.92
49040;BME280;36811;49.732;13.402;2023-02-20T02:49:00;98477.06;;;6.98;91.82
49040;BME280;36811;49.732;13.402;2023-02-20T02:51:33;98474.91;;;6.89;92.02
49040;BME280;36811;49.732;13.402;2023-02-20T02:54:15;98477.38;;;6.84;92.09
49040;BME280;36811;49.732;13.402;2023-02-20T02:56:45;98465.03;;;6.78;92.57
49040;BME280;36811;49.732;13.402;2023-02-20T02:59:31;98467.53;;;6.73;92.58
49040;BME280;36811;49.732;13.402;2023-02-20T03:02:03;98471.41;;;6.70;92.74
49040;BME280;36811;49.732;13.402;2023-02-20T03:04:32;98470.84;;;6.62;92.68
49040;BME280;36811;49.732;13.402;2023-02-20T03:07:04;98465.78;;;6.60;93.09
49040;BME280;36811;49.732;13.402;2023-02-20T03:09:37;98471.47;;;6.57;92.97
49040;BME280;36811;49.732;13.402;2023-02-20T03:12:07;98467.19;;;6.56;92.67
49040;BME280;36811;49.732;13.402;2023-02-20T03:20:48;98464.84;;;6.42;92.92
49040;BME280;36811;49.732;13.402;2023-02-20T03:23:37;98453.47;;;6.41;92.84
49040;BME280;36811;49.732;13.402;2023-02-20T03:26:10;98461.19;;;6.43;92.75
49040;BME280;36811;49.732;13.402;2023-02-20T03:28:47;98456.50;;;6.45;92.58
49040;BME280;36811;49.732;13.402;2023-02-20T03:31:20;98449.81;;;6.42;92.50
49040;BME280;36811;49.732;13.402;2023-02-20T03:34:07;98457.34;;;6.38;92.73
49040;BME280;36811;49.732;13.402;2023-02-20T03:37:02;98452.91;;;6.32;92.64
49040;BME280;36811;49.732;13.402;2023-02-20T03:39:51;98450.91;;;6.28;92.69
49040;BME280;36811;49.732;13.402;2023-02-20T03:42:39;98467.97;;;6.25;92.74
49040;BME280;36811;49.732;13.402;2023-02-20T03:45:27;98470.63;;;6.25;92.79
49040;BME280;36811;49.732;13.402;2023-02-20T03:47:59;98468.41;;;6.22;91.95
49040;BME280;36811;49.732;13.402;2023-02-20T03:50:26;98461.28;;;6.23;92.38
49040;BME280;36811;49.732;13.402;2023-02-20T03:52:52;98476.75;;;6.19;92.25
49040;BME280;36811;49.732;13.402;2023-02-20T03:55:18;98470.06;;;6.17;92.26
49040;BME280;36811;49.732;13.402;2023-02-20T03:57:56;98466.63;;;6.16;91.89
49040;BME280;36811;49.732;13.402;2023-02-20T04:00:29;98467.84;;;6.14;91.97
49040;BME280;36811;49.732;13.402;2023-02-20T04:02:59;98471.72;;;6.11;91.96
49040;BME280;36811;49.732;13.402;2023-02-20T04:05:35;98464.22;;;6.08;91.54
49040;BME280;36811;49.732;13.402;2023-02-20T04:08:13;98462.78;;;6.06;91.99
49040;BME280;36811;49.732;13.402;2023-02-20T04:10:56;98472.34;;;6.07;91.84
49040;BME280;36811;49.732;13.402;2023-02-20T04:13:23;98468.31;;;6.04;91.80
49040;BME280;36811;49.732;13.402;2023-02-20T04:15:50;98469.31;;;6.03;91.85
49040;BME280;36811;49.732;13.402;2023-02-20T04:18:19;98462.84;;;5.99;91.81
49040;BME280;36811;49.732;13.402;2023-02-20T04:20:49;98469.94;;;5.99;92.03
49040;BME280;36811;49.732;13.402;2023-02-20T04:23:19;98463.84;;;5.98;91.89
49040;BME280;36811;49.732;13.402;2023-02-20T04:25:49;98463.03;;;5.98;91.80
49040;BME280;36811;49.732;13.402;2023-02-20T04:28:17;98477.66;;;6.00;92.01
49040;BME280;36811;49.732;13.402;2023-02-20T04:30:43;98476.63;;;6.01;91.88
49040;BME280;36811;49.732;13.402;2023-02-20T04:33:13;98471.53;;;6.06;91.52
49040;BME280;36811;49.732;13.402;2023-02-20T04:35:40;98475.78;;;6.07;91.44
49040;BME280;36811;49.732;13.402;2023-02-20T04:38:07;98473.97;;;6.08;91.34
49040;BME280;36811;49.732;13.402;2023-02-20T04:40:33;98464.81;;;6.10;91.11
49040;BME280;36811;49.732;13.402;2023-02-20T04:42:59;98464.81;;;6.10;91.21
49040;BME280;36811;49.732;13.402;2023-02-20T04:45:25;98462.16;;;6.10;91.01
49040;BME280;36811;49.732;13.402;2023-02-20T04:47:51;98461.16;;;6.11;91.04
49040;BME280;36811;49.732;13.402;2023-02-20T04:50:34;98469.06;;;6.11;91.01
49040;BME280;36811;49.732;13.402;2023-02-20T04:53:00;98484.50;;;6.14;90.99
49040;BME280;36811;49.732;13.402;2023-02-20T04:55:27;98480.19;;;6.20;90.99
49040;BME280;36811;49.732;13.402;2023-02-20T04:57:53;98487.06;;;6.27;90.51
49040;BME280;36811;49.732;13.402;2023-02-20T05:00:21;98480.72;;;6.35;90.28
49040;BME280;36811;49.732;13.402;2023-02-20T05:02:48;98482.75;;;6.39;90.13
49040;BME280;36811;49.732;13.402;2023-02-20T05:05:24;98478.66;;;6.44;89.92
49040;BME280;36811;49.732;13.402;2023-02-20T05:08:02;98472.53;;;6.50;89.14
49040;BME280;36811;49.732;13.402;2023-02-20T05:10:29;98476.59;;;6.52;89.00
49040;BME280;36811;49.732;13.402;2023-02-20T05:12:56;98478.41;;;6.52;88.58
49040;BME280;36811;49.732;13.402;2023-02-20T05:15:24;98469.84;;;6.56;88.29
49040;BME280;36811;49.732;13.402;2023-02-20T05:17:50;98459.66;;;6.60;88.02
49040;BME280;36811;49.732;13.402;2023-02-20T05:20:18;98456.16;;;6.66;87.67
49040;BME280;36811;49.732;13.402;2023-02-20T05:22:45;98457.78;;;6.67;87.21
49040;BME280;36811;49.732;13.402;2023-02-20T05:25:11;98463.25;;;6.72;87.19
49040;BME280;36811;49.732;13.402;2023-02-20T05:27:37;98469.72;;;6.76;87.11
49040;BME280;36811;49.732;13.402;2023-02-20T05:30:05;98476.81;;;6.82;86.84
49040;BME280;36811;49.732;13.402;2023-02-20T05:32:31;98484.50;;;6.83;86.53
49040;BME280;36811;49.732;13.402;2023-02-20T05:34:57;98489.34;;;6.93;86.40
49040;BME280;36811;49.732;13.402;2023-02-20T05:37:24;98490.09;;;7.00;85.59
49040;BME280;36811;49.732;13.402;2023-02-20T05:39:50;98475.25;;;6.99;84.92
49040;BME280;36811;49.732;13.402;2023-02-20T05:42:17;98485.41;;;7.02;85.20
49040;BME280;36811;49.732;13.402;2023-02-20T05:44:43;98478.28;;;7.02;84.74
49040;BME280;36811;49.732;13.402;2023-02-20T05:47:09;98475.78;;;7.08;84.65
49040;BME280;36811;49.732;13.402;2023-02-20T05:49:36;98484.31;;;7.10;84.62
49040;BME280;36811;49.732;13.402;2023-02-20T05:52:03;98482.25;;;7.12;84.63
49040;BME280;36811;49.732;13.402;2023-02-20T05:54:37;98488.59;;;7.11;84.59
49040;BME280;36811;49.732;13.402;2023-02-20T05:57:03;98495.50;;;7.12;84.15
49040;BME280;36811;49.732;13.402;2023-02-20T05:59:30;98489.53;;;7.16;83.88
49040;BME280;36811;49.732;13.402;2023-02-20T06:01:57;98491.19;;;7.17;83.68
49040;BME280;36811;49.732;13.402;2023-02-20T06:04:24;98484.41;;;7.21;83.82
49040;BME280;36811;49.732;13.402;2023-02-20T06:06:50;98489.28;;;7.24;83.51
49040;BME280;36811;49.732;13.402;2023-02-20T06:09:15;98484.81;;;7.25;83.14
49040;BME280;36811;49.732;13.402;2023-02-20T06:11:49;98488.63;;;7.29;83.01
49040;BME280;36811;49.732;13.402;2023-02-20T06:14:15;98489.44;;;7.29;83.00
49040;BME280;36811;49.732;13.402;2023-02-20T06:16:43;98482.09;;;7.31;82.90
49040;BME280;36811;49.732;13.402;2023-02-20T06:19:09;98488.94;;;7.39;82.72
49040;BME280;36811;49.732;13.402;2023-02-20T06:21:34;98488.66;;;7.47;83.10
49040;BME280;36811;49.732;13.402;2023-02-20T06:24:00;98491.69;;;7.50;82.58
49040;BME280;36811;49.732;13.402;2023-02-20T06:26:27;98486.41;;;7.50;82.56
49040;BME280;36811;49.732;13.402;2023-02-20T06:28:52;98486.75;;;7.54;82.45
49040;BME280;36811;49.732;13.402;2023-02-20T06:31:26;98482.44;;;7.59;82.52
49040;BME280;36811;49.732;13.402;2023-02-20T06:33:53;98485.09;;;7.59;82.21
49040;BME280;36811;49.732;13.402;2023-02-20T06:36:26;98472.00;;;7.64;81.82
49040;BME280;36811;49.732;13.402;2023-02-20T06:38:52;98472.81;;;7.65;82.25
49040;BME280;36811;49.732;13.402;2023-02-20T06:41:18;98479.28;;;7.69;81.58
49040;BME280;36811;49.732;13.402;2023-02-20T06:43:43;98492.06;;;7.72;81.79
49040;BME280;36811;49.732;13.402;2023-02-20T06:46:09;98482.44;;;7.78;80.97
49040;BME280;36811;49.732;13.402;2023-02-20T06:48:43;98485.69;;;7.80;80.38
49040;BME280;36811;49.732;13.402;2023-02-20T06:51:09;98479.59;;;7.79;80.66
49040;BME280;36811;49.732;13.402;2023-02-20T06:53:35;98471.94;;;7.89;80.44
49040;BME280;36811;49.732;13.402;2023-02-20T06:56:08;98471.06;;;7.95;80.25
49040;BME280;36811;49.732;13.402;2023-02-20T06:58:34;98474.66;;;8.01;79.77
49040;BME280;36811;49.732;13.402;2023-02-20T07:01:00;98468.47;;;8.07;79.29
49040;BME280;36811;49.732;13.402;2023-02-20T07:03:26;98470.31;;;8.06;79.47
49040;BME280;36811;49.732;13.402;2023-02-20T07:05:51;98485.16;;;8.25;78.90
49040;BME280;36811;49.732;13.402;2023-02-20T07:08:17;98479.72;;;8.39;78.03
49040;BME280;36811;49.732;13.402;2023-02-20T07:10:43;98479.75;;;8.50;77.28
49040;BME280;36811;49.732;13.402;2023-02-20T07:13:08;98488.66;;;8.56;76.88
49040;BME280;36811;49.732;13.402;2023-02-20T07:15:34;98511.38;;;8.52;76.73
49040;BME280;36811;49.732;13.402;2023-02-20T07:17:59;98520.25;;;8.57;77.02
49040;BME280;36811;49.732;13.402;2023-02-20T07:20:25;98517.66;;;8.69;76.99
49040;BME280;36811;49.732;13.402;2023-02-20T07:22:51;98510.72;;;8.68;76.41
49040;BME280;36811;49.732;13.402;2023-02-20T07:25:19;98507.00;;;8.57;75.49
49040;BME280;36811;49.732;13.402;2023-02-20T07:27:45;98512.53;;;8.56;76.17
49040;BME280;36811;49.732;13.402;2023-02-20T07:30:11;98488.44;;;8.57;76.13
49040;BME280;36811;49.732;13.402;2023-02-20T07:32:38;98502.72;;;8.56;76.24
49040;BME280;36811;49.732;13.402;2023-02-20T07:35:04;98483.28;;;8.62;75.49
49040;BME280;36811;49.732;13.402;2023-02-20T07:37:30;98481.66;;;8.61;75.87
49040;BME280;36811;49.732;13.402;2023-02-20T07:39:56;98470.72;;;8.69;75.40
49040;BME280;36811;49.732;13.402;2023-02-20T07:42:21;98447.56;;;8.76;74.29
49040;BME280;36811;49.732;13.402;2023-02-20T07:44:47;98448.59;;;8.75;74.20
49040;BME280;36811;49.732;13.402;2023-02-20T07:47:14;98457.16;;;8.77;74.57
49040;BME280;36811;49.732;13.402;2023-02-20T07:49:40;98453.13;;;8.86;73.70
49040;BME280;36811;49.732;13.402;2023-02-20T07:52:06;98454.75;;;8.99;72.91
49040;BME280;36811;49.732;13.402;2023-02-20T07:54:31;98467.56;;;9.02;73.24
49040;BME280;36811;49.732;13.402;2023-02-20T07:56:57;98475.66;;;9.07;72.76
49040;BME280;36811;49.732;13.402;2023-02-20T07:59:23;98462.38;;;9.19;71.85
49040;BME280;36811;49.732;13.402;2023-02-20T08:01:48;98477.41;;;9.25;71.60
49040;BME280;36811;49.732;13.402;2023-02-20T08:04:15;98489.06;;;9.35;71.50
49040;BME280;36811;49.732;13.402;2023-02-20T08:06:40;98486.88;;;9.32;71.08
49040;BME280;36811;49.732;13.402;2023-02-20T08:09:06;98469.91;;;9.45;71.68
49040;BME280;36811;49.732;13.402;2023-02-20T08:11:36;98469.13;;;9.56;70.91
49040;BME280;36811;49.732;13.402;2023-02-20T08:14:03;98486.75;;;9.62;70.52
49040;BME280;36811;49.732;13.402;2023-02-20T08:16:29;98487.88;;;9.89;71.16
49040;BME280;36811;49.732;13.402;2023-02-20T08:18:55;98465.09;;;10.05;69.50
49040;BME280;36811;49.732;13.402;2023-02-20T08:21:21;98471.47;;;9.92;69.17
49040;BME280;36811;49.732;13.402;2023-02-20T08:23:47;98458.75;;;9.94;68.95
49040;BME280;36811;49.732;13.402;2023-02-20T08:26:13;98463.84;;;9.96;68.64
49040;BME280;36811;49.732;13.402;2023-02-20T08:28:39;98463.63;;;9.86;68.90
49040;BME280;36811;49.732;13.402;2023-02-20T08:31:05;98458.13;;;9.76;69.00
49040;BME280;36811;49.732;13.402;2023-02-20T08:33:30;98464.59;;;9.68;69.43
49040;BME280;36811;49.732;13.402;2023-02-20T08:35:56;98444.16;;;9.69;69.53
49040;BME280;36811;49.732;13.402;2023-02-20T08:38:29;98429.91;;;9.75;69.12
49040;BME280;36811;49.732;13.402;2023-02-20T08:40:57;98442.94;;;9.88;68.90
49040;BME280;36811;49.732;13.402;2023-02-20T08:43:23;98435.44;;;9.96;68.66
49040;BME280;36811;49.732;13.402;2023-02-20T08:45:49;98419.13;;;9.93;67.50
49040;BME280;36811;49.732;13.402;2023-02-20T08:48:15;98434.81;;;10.06;67.33
49040;BME280;36811;49.732;13.402;2023-02-20T08:50:41;98426.94;;;10.11;66.72
49040;BME280;36811;49.732;13.402;2023-02-20T08:53:07;98428.84;;;10.39;67.51
49040;BME280;36811;49.732;13.402;2023-02-20T08:55:33;98437.91;;;10.71;66.29
49040;BME280;36811;49.732;13.402;2023-02-20T08:57:59;98435.25;;;10.71;64.95
49040;BME280;36811;49.732;13.402;2023-02-20T09:00:26;98430.19;;;10.86;64.54
49040;BME280;36811;49.732;13.402;2023-02-20T09:02:52;98437.53;;;10.96;63.81
49040;BME280;36811;49.732;13.402;2023-02-20T09:05:18;98445.53;;;11.12;63.79
49040;BME280;36811;49.732;13.402;2023-02-20T09:07:44;98444.78;;;11.33;62.91
49040;BME280;36811;49.732;13.402;2023-02-20T09:10:10;98407.19;;;11.30;61.18
49040;BME280;36811;49.732;13.402;2023-02-20T09:12:36;98412.94;;;11.05;61.67
49040;BME280;36811;49.732;13.402;2023-02-20T09:15:04;98422.16;;;10.98;62.64
49040;BME280;36811;49.732;13.402;2023-02-20T09:17:30;98409.53;;;11.26;61.05
49040;BME280;36811;49.732;13.402;2023-02-20T09:19:56;98385.41;;;11.16;59.76
49040;BME280;36811;49.732;13.402;2023-02-20T09:22:25;98391.22;;;11.13;60.69
49040;BME280;36811;49.732;13.402;2023-02-20T09:24:52;98393.25;;;11.06;60.52
49040;BME280;36811;49.732;13.402;2023-02-20T09:27:19;98395.19;;;10.94;59.82
49040;BME280;36811;49.732;13.402;2023-02-20T09:29:45;98405.66;;;11.17;60.36
49040;BME280;36811;49.732;13.402;2023-02-20T09:32:12;98403.63;;;11.24;59.45
49040;BME280;36811;49.732;13.402;2023-02-20T09:34:39;98392.38;;;11.56;58.99
49040;BME280;36811;49.732;13.402;2023-02-20T09:37:04;98389.75;;;11.22;58.49
49040;BME280;36811;49.732;13.402;2023-02-20T09:39:33;98406.44;;;11.34;59.55
49040;BME280;36811;49.732;13.402;2023-02-20T09:50:02;98408.53;;;12.09;57.71
49040;BME280;36811;49.732;13.402;2023-02-20T09:52:33;98378.97;;;12.42;57.57
49040;BME280;36811;49.732;13.402;2023-02-20T09:55:13;98388.78;;;12.63;56.74
49040;BME280;36811;49.732;13.402;2023-02-20T09:57:48;98388.47;;;12.60;56.87
49040;BME280;36811;49.732;13.402;2023-02-20T10:00:24;98383.78;;;13.41;56.48
49040;BME280;36811;49.732;13.402;2023-02-20T10:02:58;98379.03;;;13.48;55.13
49040;BME280;36811;49.732;13.402;2023-02-20T10:05:29;98365.63;;;13.43;53.49
49040;BME280;36811;49.732;13.402;2023-02-20T10:07:56;98347.84;;;13.16;54.56
49040;BME280;36811;49.732;13.402;2023-02-20T10:10:26;98376.00;;;13.34;54.05
49040;BME280;36811;49.732;13.402;2023-02-20T10:16:21;98384.84;;;12.71;53.98
49040;BME280;36811;49.732;13.402;2023-02-20T10:18:44;98361.03;;;12.96;53.83
49040;BME280;36811;49.732;13.402;2023-02-20T10:27:33;98365.13;;;14.18;51.88
49040;BME280;36811;49.732;13.402;2023-02-20T10:30:10;98361.13;;;14.30;50.36
49040;BME280;36811;49.732;13.402;2023-02-20T10:33:00;98353.69;;;14.73;50.21
49040;BME280;36811;49.732;13.402;2023-02-20T10:35:35;98350.22;;;14.42;49.50
49040;BME280;36811;49.732;13.402;2023-02-20T10:38:07;98354.34;;;13.92;50.88
49040;BME280;36811;49.732;13.402;2023-02-20T10:41:03;98335.75;;;13.56;51.24
49040;BME280;36811;49.732;13.402;2023-02-20T10:43:45;98351.78;;;12.72;52.11
49040;BME280;36811;49.732;13.402;2023-02-20T10:49:26;98341.44;;;12.49;53.15
49040;BME280;36811;49.732;13.402;2023-02-20T10:51:58;98340.47;;;12.33;53.92
49040;BME280;36811;49.732;13.402;2023-02-20T10:54:37;98320.34;;;12.52;53.89
49040;BME280;36811;49.732;13.402;2023-02-20T10:57:27;98328.81;;;12.39;53.21
49040;BME280;36811;49.732;13.402;2023-02-20T11:00:03;98324.06;;;12.20;53.68
49040;BME280;36811;49.732;13.402;2023-02-20T11:02:34;98336.69;;;12.02;53.18
49040;BME280;36811;49.732;13.402;2023-02-20T11:05:09;98324.97;;;12.30;53.26
49040;BME280;36811;49.732;13.402;2023-02-20T11:07:35;98309.47;;;12.27;52.48
49040;BME280;36811;49.732;13.402;2023-02-20T11:10:02;98308.97;;;12.30;53.13
49040;BME280;36811;49.732;13.402;2023-02-20T11:12:43;98299.78;;;12.48;52.75
49040;BME280;36811;49.732;13.402;2023-02-20T11:15:13;98292.50;;;12.75;53.00
49040;BME280;36811;49.732;13.402;2023-02-20T11:17:41;98289.56;;;12.71;53.41
49040;BME280;36811;49.732;13.402;2023-02-20T11:23:06;98283.81;;;12.90;53.52
49040;BME280;36811;49.732;13.402;2023-02-20T11:25:32;98261.25;;;12.70;53.14
49040;BME280;36811;49.732;13.402;2023-02-20T11:28:22;98280.13;;;12.27;53.85
49040;BME280;36811;49.732;13.402;2023-02-20T11:31:01;98270.69;;;12.46;53.19
49040;BME280;36811;49.732;13.402;2023-02-20T11:33:29;98263.06;;;13.02;53.62
49040;BME280;36811;49.732;13.402;2023-02-20T11:36:09;98267.69;;;13.16;53.55
49040;BME280;36811;49.732;13.402;2023-02-20T11:38:37;98244.22;;;13.23;52.89
49040;BME280;36811;49.732;13.402;2023-02-20T11:41:46;98248.84;;;13.38;53.01
49040;BME280;36811;49.732;13.402;2023-02-20T11:44:17;98250.50;;;13.64;52.40
49040;BME280;36811;49.732;13.402;2023-02-20T11:46:44;98250.56;;;13.94;51.81
49040;BME280;36811;49.732;13.402;2023-02-20T11:49:27;98250.88;;;14.03;51.33
49040;BME280;36811;49.732;13.402;2023-02-20T11:52:07;98245.03;;;14.46;51.69
49040;BME280;36811;49.732;13.402;2023-02-20T11:54:33;98234.03;;;14.48;49.93
49040;BME280;36811;49.732;13.402;2023-02-20T11:59:36;98236.16;;;14.21;51.39
49040;BME280;36811;49.732;13.402;2023-02-20T12:04:35;98234.28;;;14.16;50.53
49040;BME280;36811;49.732;13.402;2023-02-20T12:07:18;98223.00;;;13.94;51.30
49040;BME280;36811;49.732;13.402;2023-02-20T12:09:52;98220.09;;;13.85;51.20
49040;BME280;36811;49.732;13.402;2023-02-20T12:12:20;98162.28;;;13.49;50.47
49040;BME280;36811;49.732;13.402;2023-02-20T12:14:50;98215.78;;;12.97;52.53
49040;BME280;36811;49.732;13.402;2023-02-20T12:17:36;98212.16;;;13.23;52.70
49040;BME280;36811;49.732;13.402;2023-02-20T12:22:35;98203.56;;;13.11;52.82
49040;BME280;36811;49.732;13.402;2023-02-20T12:25:26;98195.75;;;13.00;53.08
49040;BME280;36811;49.732;13.402;2023-02-20T12:28:23;98194.44;;;13.02;53.28
49040;BME280;36811;49.732;13.402;2023-02-20T12:42:35;98190.44;;;13.05;54.35
49040;BME280;36811;49.732;13.402;2023-02-20T12:45:45;98170.91;;;12.99;53.64
49040;BME280;36811;49.732;13.402;2023-02-20T12:57:02;98155.03;;;13.29;54.05
49040;BME280;36811;49.732;13.402;2023-02-20T12:59:34;98154.50;;;13.27;53.95
49040;BME280;36811;49.732;13.402;2023-02-20T13:04:49;98160.13;;;13.41;54.42
49040;BME280;36811;49.732;13.402;2023-02-20T13:07:25;98162.81;;;13.51;54.06
49040;BME280;36811;49.732;13.402;2023-02-20T13:09:58;98162.59;;;13.78;54.48
49040;BME280;36811;49.732;13.402;2023-02-20T13:12:27;98154.81;;;13.76;53.72
49040;BME280;36811;49.732;13.402;2023-02-20T13:18:05;98138.50;;;13.43;54.63
49040;BME280;36811;49.732;13.402;2023-02-20T13:20:46;98145.16;;;13.40;54.78
49040;BME280;36811;49.732;13.402;2023-02-20T13:25:46;98127.50;;;13.34;55.73
49040;BME280;36811;49.732;13.402;2023-02-20T13:28:37;98138.72;;;13.31;54.45
49040;BME280;36811;49.732;13.402;2023-02-20T13:33:33;98120.03;;;13.46;54.25
49040;BME280;36811;49.732;13.402;2023-02-20T13:36:11;98128.34;;;13.65;54.43
49040;BME280;36811;49.732;13.402;2023-02-20T13:38:40;98125.16;;;13.83;54.30
49040;BME280;36811;49.732;13.402;2023-02-20T13:41:08;98121.38;;;14.14;53.94
49040;BME280;36811;49.732;13.402;2023-02-20T13:43:35;98123.50;;;14.27;53.47
49040;BME280;36811;49.732;13.402;2023-02-20T13:53:49;98101.41;;;14.81;52.17
49040;BME280;36811;49.732;13.402;2023-02-20T13:56:27;98090.88;;;15.04;51.52
49040;BME280;36811;49.732;13.402;2023-02-20T13:58:57;98097.13;;;15.28;50.68
49040;BME280;36811;49.732;13.402;2023-02-20T14:01:24;98090.22;;;15.22;51.01
49040;BME280;36811;49.732;13.402;2023-02-20T14:04:01;98080.84;;;15.25;50.90
49040;BME280;36811;49.732;13.402;2023-02-20T14:06:27;98079.06;;;15.05;49.80
49040;BME280;36811;49.732;13.402;2023-02-20T14:09:20;98088.44;;;15.03;49.62
49040;BME280;36811;49.732;13.402;2023-02-20T14:11:48;98078.63;;;14.88;50.04
49040;BME280;36811;49.732;13.402;2023-02-20T14:14:44;98079.59;;;15.07;49.14
49040;BME280;36811;49.732;13.402;2023-02-20T14:17:16;98076.28;;;15.20;48.44
49040;BME280;36811;49.732;13.402;2023-02-20T14:19:46;98070.94;;;15.15;47.92
49040;BME280;36811;49.732;13.402;2023-02-20T14:22:21;98066.22;;;15.07;47.56
49040;BME280;36811;49.732;13.402;2023-02-20T14:25:23;98069.97;;;15.01;48.34
49040;BME280;36811;49.732;13.402;2023-02-20T14:28:02;98078.94;;;14.82;47.91
49040;BME280;36811;49.732;13.402;2023-02-20T14:30:28;98057.63;;;14.56;47.50
49040;BME280;36811;49.732;13.402;2023-02-20T14:32:56;98055.56;;;14.33;46.62
49040;BME280;36811;49.732;13.402;2023-02-20T14:40:36;98056.66;;;14.07;48.30
49040;BME280;36811;49.732;13.402;2023-02-20T14:43:13;98060.94;;;14.03;48.04
49040;BME280;36811;49.732;13.402;2023-02-20T14:45:40;98055.91;;;13.76;48.49
49040;BME280;36811;49.732;13.402;2023-02-20T14:48:22;98047.88;;;13.71;48.10
49040;BME280;36811;49.732;13.402;2023-02-20T14:50:47;98045.22;;;13.61;48.15
49040;BME280;36811;49.732;13.402;2023-02-20T14:53:18;98051.91;;;13.54;49.02